createdAt,value
2022-08-30T00:04:02.891Z,17.65
2022-08-30T00:09:04.725Z,17.58
2022-08-30T00:14:07.132Z,17.58
2022-08-30T00:19:08.744Z,17.52
2022-08-30T00:24:10.331Z,17.48
2022-08-30T00:29:11.960Z,17.46
2022-08-30T00:34:16.856Z,17.44
2022-08-30T00:39:18.454Z,17.41
2022-08-30T00:44:20.086Z,17.34
2022-08-30T00:49:22.007Z,17.26
2022-08-30T00:54:26.300Z,17.19
2022-08-30T00:59:29.082Z,17.16
2022-08-30T01:04:33.573Z,17.07
2022-08-30T01:09:36.685Z,16.95
2022-08-30T01:14:38.567Z,16.87
2022-08-30T01:20:00.839Z,16.91
2022-08-30T01:25:05.052Z,16.82
2022-08-30T01:30:10.326Z,16.86
2022-08-30T01:35:15.757Z,16.77
2022-08-30T01:40:18.811Z,16.83
2022-08-30T01:45:20.601Z,16.75
2022-08-30T01:50:22.288Z,16.50
2022-08-30T01:55:24.118Z,16.29
2022-08-30T02:00:25.677Z,16.25
2022-08-30T02:05:27.549Z,16.28
2022-08-30T02:10:29.714Z,16.30
2022-08-30T02:15:31.422Z,16.38
2022-08-30T02:20:43.161Z,16.54
2022-08-30T02:25:45.323Z,16.65
2022-08-30T02:30:48.201Z,16.81
2022-08-30T02:35:49.900Z,16.92
2022-08-30T02:40:51.794Z,17.05
2022-08-30T02:45:53.869Z,17.13
2022-08-30T02:50:55.525Z,17.23
2022-08-30T02:55:57.151Z,17.28
2022-08-30T03:00:59.754Z,17.39
2022-08-30T03:06:03.367Z,17.45
2022-08-30T03:11:05.547Z,17.54
2022-08-30T03:16:07.211Z,17.61
2022-08-30T03:21:16.435Z,17.51
2022-08-30T03:26:18.228Z,17.64
2022-08-30T03:31:20.160Z,17.62
2022-08-30T03:36:21.808Z,17.58
2022-08-30T03:41:24.324Z,17.66
2022-08-30T03:46:26.846Z,17.72
2022-08-30T03:51:30.412Z,17.91
2022-08-30T03:56:31.984Z,17.78
2022-08-30T04:01:33.622Z,17.77
2022-08-30T04:06:35.289Z,17.91
2022-08-30T04:11:36.909Z,17.83
2022-08-30T04:16:38.603Z,17.73
2022-08-30T04:21:43.020Z,17.74
2022-08-30T04:26:44.868Z,17.81
2022-08-30T04:31:46.513Z,17.80
2022-08-30T04:36:49.096Z,17.86
2022-08-30T04:41:52.750Z,17.97
2022-08-30T04:46:54.519Z,18.05
2022-08-30T04:51:56.103Z,18.10
2022-08-30T04:56:57.719Z,18.13
2022-08-30T05:01:59.982Z,18.10
2022-08-30T05:07:01.674Z,18.13
2022-08-30T05:12:03.560Z,18.16
2022-08-30T05:17:05.510Z,18.17
2022-08-30T05:22:07.857Z,18.26
2022-08-30T05:27:09.452Z,18.35
2022-08-30T05:32:11.100Z,18.37
2022-08-30T05:37:12.691Z,18.33
2022-08-30T05:42:14.265Z,18.34
2022-08-30T05:47:19.576Z,18.50
2022-08-30T05:52:26.445Z,18.55
2022-08-30T05:57:28.077Z,18.66
2022-08-30T06:02:29.657Z,18.76
2022-08-30T06:07:31.528Z,18.82
2022-08-30T06:12:33.624Z,18.74
2022-08-30T06:17:35.547Z,18.89
2022-08-30T06:22:41.789Z,18.95
2022-08-30T06:27:43.702Z,19.05
2022-08-30T06:32:45.306Z,19.13
2022-08-30T06:37:46.871Z,19.18
2022-08-30T06:42:48.815Z,19.22
2022-08-30T06:47:50.452Z,19.35
2022-08-30T06:52:52.224Z,19.18
2022-08-30T06:57:53.811Z,19.35
2022-08-30T07:02:55.605Z,19.31
2022-08-30T07:07:57.272Z,19.36
2022-08-30T07:12:59.016Z,19.73
2022-08-30T07:18:18.775Z,19.93
2022-08-30T07:23:20.524Z,20.06
2022-08-30T07:28:22.233Z,20.26
2022-08-30T07:33:23.873Z,20.21
2022-08-30T07:38:37.797Z,20.42
2022-08-30T07:43:39.365Z,20.86
2022-08-30T07:48:41.529Z,20.85
2022-08-30T07:53:46.537Z,20.80
2022-08-30T07:58:49.019Z,20.75
2022-08-30T08:03:51.048Z,20.73
2022-08-30T08:08:53.804Z,20.63
2022-08-30T08:13:56.073Z,20.95
2022-08-30T08:18:57.895Z,21.11
2022-08-30T08:23:59.475Z,21.68
2022-08-30T08:29:01.087Z,22.14
2022-08-30T08:34:06.077Z,22.02
2022-08-30T08:39:09.307Z,21.50
2022-08-30T08:44:15.673Z,21.29
2022-08-30T08:49:17.521Z,21.45
2022-08-30T08:54:25.791Z,22.16
2022-08-30T08:59:27.461Z,22.69
2022-08-30T09:04:37.831Z,22.28
2022-08-30T09:14:47.204Z,22.31
2022-08-30T09:19:51.823Z,22.38
2022-08-30T09:25:24.030Z,22.49
2022-08-30T09:30:28.679Z,22.58
2022-08-30T09:35:41.495Z,22.51
2022-08-30T09:40:45.987Z,22.64
2022-08-30T09:46:08.860Z,23.06
2022-08-30T09:51:10.476Z,23.58
2022-08-30T09:56:22.215Z,23.60
2022-08-30T10:01:38.292Z,23.01
2022-08-30T10:07:02.902Z,22.81
2022-08-30T10:12:23.000Z,22.61
2022-08-30T10:17:44.711Z,23.25
2022-08-30T10:22:52.441Z,23.80
2022-08-30T10:28:12.790Z,24.08
2022-08-30T10:33:25.494Z,24.38
2022-08-30T10:38:33.465Z,24.36
2022-08-30T10:43:40.016Z,24.04
2022-08-30T10:48:47.551Z,23.74
2022-08-30T10:54:09.106Z,23.64
2022-08-30T10:59:12.144Z,23.74
2022-08-30T11:04:45.416Z,23.60
2022-08-30T11:10:11.017Z,23.46
2022-08-30T11:15:37.316Z,23.40
2022-08-30T11:20:51.143Z,23.74
2022-08-30T11:26:04.224Z,23.74
2022-08-30T11:31:21.046Z,24.01
2022-08-30T11:36:46.180Z,24.00
2022-08-30T11:42:12.780Z,23.83
2022-08-30T11:47:39.601Z,23.84
2022-08-30T11:53:15.222Z,23.75
2022-08-30T11:58:23.901Z,23.94
2022-08-30T12:03:32.923Z,24.23
2022-08-30T12:08:34.547Z,24.52
2022-08-30T12:13:37.893Z,24.43
2022-08-30T12:18:39.503Z,24.18
2022-08-30T12:23:48.671Z,24.31
2022-08-30T12:28:52.732Z,24.24
2022-08-30T12:34:00.783Z,24.39
2022-08-30T12:39:14.315Z,24.15
2022-08-30T12:44:22.540Z,23.85
2022-08-30T12:49:25.605Z,24.10
2022-08-30T12:54:30.780Z,24.11
2022-08-30T12:59:54.024Z,23.88
2022-08-30T13:05:28.327Z,23.95
2022-08-30T13:10:31.285Z,23.77
2022-08-30T13:15:41.231Z,23.93
2022-08-30T13:20:43.324Z,24.20
2022-08-30T13:25:45.372Z,24.58
2022-08-30T13:30:46.971Z,24.73
2022-08-30T13:35:48.583Z,24.61
2022-08-30T13:40:50.268Z,24.47
2022-08-30T13:45:52.114Z,24.57
2022-08-30T13:50:53.862Z,24.45
2022-08-30T13:55:55.506Z,24.56
2022-08-30T14:00:57.893Z,24.46
2022-08-30T14:06:21.799Z,24.42
2022-08-30T14:11:22.885Z,24.49
2022-08-30T14:16:28.251Z,24.43
2022-08-30T14:21:30.205Z,24.43
2022-08-30T14:26:45.774Z,24.40
2022-08-30T14:31:51.461Z,24.41
2022-08-30T14:36:53.212Z,24.42
2022-08-30T14:41:55.848Z,24.38
2022-08-30T14:46:57.541Z,24.13
2022-08-30T14:51:59.262Z,24.08
2022-08-30T14:57:00.967Z,24.01
2022-08-30T15:02:02.585Z,24.16
2022-08-30T15:07:04.515Z,24.21
2022-08-30T15:12:06.318Z,24.22
2022-08-30T15:17:09.323Z,24.22
2022-08-30T15:22:11.140Z,24.02
2022-08-30T15:27:12.771Z,23.83
2022-08-30T15:32:14.364Z,23.75
2022-08-30T15:37:22.355Z,23.58
2022-08-30T15:42:23.969Z,23.62
2022-08-30T15:47:25.566Z,23.76
2022-08-30T15:52:27.796Z,23.74
2022-08-30T15:57:29.446Z,23.63
2022-08-30T16:02:31.155Z,23.49
2022-08-30T16:07:36.277Z,23.39
2022-08-30T16:12:40.450Z,23.31
2022-08-30T16:17:42.038Z,23.29
2022-08-30T16:22:46.044Z,23.26
2022-08-30T16:27:48.924Z,23.19
2022-08-30T16:32:50.538Z,23.24
2022-08-30T16:37:52.241Z,23.06
2022-08-30T16:42:53.812Z,22.92
2022-08-30T16:47:55.479Z,22.83
2022-08-30T16:52:57.167Z,22.67
2022-08-30T16:57:58.744Z,22.62
2022-08-30T17:03:00.575Z,22.52
2022-08-30T17:08:04.148Z,22.46
2022-08-30T17:13:05.771Z,22.37
2022-08-30T17:18:07.381Z,22.33
2022-08-30T17:23:10.349Z,22.30
2022-08-30T17:28:11.934Z,22.27
2022-08-30T17:33:15.119Z,22.20
2022-08-30T17:38:19.709Z,22.19
2022-08-30T17:43:21.464Z,22.09
2022-08-30T17:48:23.100Z,21.98
2022-08-30T17:53:24.797Z,21.84
2022-08-30T17:58:26.554Z,21.78
2022-08-30T18:03:28.853Z,21.72
2022-08-30T18:08:30.967Z,21.63
2022-08-30T18:13:33.325Z,21.58
2022-08-30T18:18:36.488Z,21.43
2022-08-30T18:23:38.126Z,21.37
2022-08-30T18:28:41.544Z,21.27
2022-08-30T18:33:43.647Z,21.20
2022-08-30T18:38:45.525Z,21.09
2022-08-30T18:43:47.213Z,21.04
2022-08-30T18:48:49.248Z,20.97
2022-08-30T18:53:50.867Z,20.87
2022-08-30T18:58:52.476Z,20.76
2022-08-30T19:03:54.108Z,20.72
2022-08-30T19:08:56.146Z,20.68
2022-08-30T19:13:57.757Z,20.62
2022-08-30T19:18:59.623Z,20.54
2022-08-30T19:24:01.801Z,20.52
2022-08-30T19:29:05.194Z,20.49
2022-08-30T19:34:06.885Z,20.43
2022-08-30T19:39:09.984Z,20.35
2022-08-30T19:44:11.834Z,20.28
2022-08-30T19:49:13.444Z,20.21
2022-08-30T19:54:15.331Z,20.12
2022-08-30T19:59:19.570Z,20.12
2022-08-30T20:04:22.147Z,20.10
2022-08-30T20:09:25.175Z,20.05
2022-08-30T20:14:26.887Z,20.00
2022-08-30T20:19:29.299Z,19.95
2022-08-30T20:24:31.171Z,19.95
2022-08-30T20:29:34.487Z,19.83
2022-08-30T20:34:37.209Z,19.77
2022-08-30T20:39:39.204Z,19.67
2022-08-30T20:44:40.796Z,19.61
2022-08-30T20:49:43.293Z,19.53
2022-08-30T20:54:45.189Z,19.50
2022-08-30T20:59:46.768Z,19.47
2022-08-30T21:04:48.493Z,19.44
2022-08-30T21:09:50.431Z,19.43
2022-08-30T21:14:52.255Z,19.38
2022-08-30T21:19:55.345Z,19.33
2022-08-30T21:24:56.962Z,19.34
2022-08-30T21:29:58.654Z,19.38
2022-08-30T21:35:18.482Z,19.28
2022-08-30T21:40:20.871Z,19.23
2022-08-30T21:45:22.977Z,19.24
2022-08-30T21:50:24.559Z,19.19
2022-08-30T21:55:26.433Z,19.22
2022-08-30T22:00:28.181Z,19.29
2022-08-30T22:05:29.846Z,19.24
2022-08-30T22:10:33.374Z,19.23
2022-08-30T22:15:35.121Z,19.19
2022-08-30T22:20:36.712Z,19.08
2022-08-30T22:25:38.282Z,19.11
2022-08-30T22:30:39.935Z,19.14
2022-08-30T22:35:41.592Z,19.12
2022-08-30T22:40:54.264Z,19.14
2022-08-30T22:45:57.934Z,19.16
2022-08-30T22:50:59.617Z,19.17
2022-08-30T22:56:07.285Z,19.17
2022-08-30T23:01:17.979Z,19.21
2022-08-30T23:06:19.976Z,19.20
2022-08-30T23:11:22.255Z,19.17
2022-08-30T23:16:24.914Z,19.18
2022-08-30T23:21:29.825Z,19.14
2022-08-30T23:26:50.109Z,19.18
2022-08-30T23:32:10.440Z,19.20
2022-08-30T23:37:30.710Z,19.21
2022-08-30T23:42:50.527Z,19.21
2022-08-30T23:48:10.412Z,19.17
2022-08-30T23:53:30.570Z,19.20
2022-08-30T23:58:50.514Z,19.22
